Time;durP1;ratioP1;P1;durP2;ratioP2;P2;SDS_P1;SDS_P2;PMS_P1;PMS_P2;Temp;Humidity;BMP_temperature;BMP_pressure;BME280_temperature;BME280_humidity;BME280_pressure;Samples;Min_cycle;Max_cycle;Signal;HPM_P1;HPM_P2
2021/05/08 00:02:06;;;;;;;4.80;4.40;;;;;;;3.09;63.21;99296.69;5009439;28;42135;-80
2021/05/08 00:04:33;;;;;;;4.03;3.63;;;;;;;3.04;63.23;99292.47;5008123;28;42694;-76
2021/05/08 00:07:00;;;;;;;4.97;4.33;;;;;;;3.02;63.38;99300.38;4991428;28;39066;-83
2021/05/08 00:09:28;;;;;;;4.17;3.77;;;;;;;2.98;63.10;99290.88;4991136;28;40780;-78
2021/05/08 00:11:56;;;;;;;4.70;3.87;;;;;;;2.96;63.43;99294.44;5007845;28;41804;-82
2021/05/08 00:14:23;;;;;;;5.57;4.53;;;;;;;2.82;63.56;99276.47;5008510;28;42678;-79
2021/05/08 00:16:52;;;;;;;5.47;4.93;;;;;;;2.88;63.63;99292.84;5008234;28;41041;-84
2021/05/08 00:19:19;;;;;;;5.27;4.73;;;;;;;2.87;63.55;99285.03;4991785;28;41543;-81
2021/05/08 00:21:46;;;;;;;5.77;5.17;;;;;;;2.76;63.74;99276.59;5009588;28;43319;-82
2021/05/08 00:24:13;;;;;;;5.43;4.93;;;;;;;2.83;63.88;99296.50;5008203;28;42257;-78
2021/05/08 00:26:41;;;;;;;5.77;4.67;;;;;;;2.79;63.94;99295.72;5008208;28;38958;-84
2021/05/08 00:29:08;;;;;;;5.67;5.07;;;;;;;2.64;63.79;99272.53;5008489;28;41552;-80
2021/05/08 00:31:35;;;;;;;5.43;4.93;;;;;;;2.77;63.90;99299.25;5005119;28;42542;-78
2021/05/08 00:34:03;;;;;;;5.10;4.47;;;;;;;2.75;63.86;99294.06;4972517;28;42293;-84
2021/05/08 00:36:31;;;;;;;4.47;4.00;;;;;;;2.72;63.84;99301.13;4995291;28;38991;-81
2021/05/08 00:38:58;;;;;;;6.53;4.43;;;;;;;2.69;63.77;99291.59;5010806;28;41705;-77
2021/05/08 00:41:25;;;;;;;4.03;3.67;;;;;;;2.65;64.03;99295.16;5006785;28;42812;-78
2021/05/08 00:43:56;;;;;;;4.27;3.87;;;;;;;2.63;64.12;99293.47;4991326;28;41538;-83
2021/05/08 00:46:23;;;;;;;5.80;4.67;;;;;;;2.61;64.45;99290.91;5007894;28;40097;-78
2021/05/08 00:48:51;;;;;;;6.07;4.53;;;;;;;2.59;64.33;99291.84;5008335;28;41626;-81
2021/05/08 00:51:19;;;;;;;5.00;4.50;;;;;;;2.44;64.54;99273.00;4991675;28;43155;-79
2021/05/08 00:53:48;;;;;;;4.53;4.10;;;;;;;2.48;64.49;99277.25;5010673;28;42353;-76
2021/05/08 00:56:15;;;;;;;5.30;4.80;;;;;;;2.48;64.69;99287.72;5010625;28;39937;-77
2021/05/08 00:58:44;;;;;;;5.07;4.20;;;;;;;2.48;64.84;99290.31;5009687;28;41280;-82
2021/05/08 01:01:11;;;;;;;4.77;4.30;;;;;;;2.46;64.89;99294.75;5010760;28;42419;-78
2021/05/08 01:03:38;;;;;;;5.40;4.60;;;;;;;2.42;65.09;99287.88;4993898;28;41418;-82
2021/05/08 01:06:07;;;;;;;4.90;4.27;;;;;;;2.39;65.32;99282.69;4993718;28;39308;-77
2021/05/08 01:08:37;;;;;;;5.10;4.60;;;;;;;2.38;65.11;99290.56;5010170;28;41867;-79
2021/05/08 01:11:04;;;;;;;5.00;4.50;;;;;;;2.35;65.21;99288.06;5011802;28;43560;-77
2021/05/08 01:13:35;;;;;;;4.13;3.73;;;;;;;2.30;65.25;99288.16;4994153;28;41140;-75
2021/05/08 01:16:03;;;;;;;5.93;4.67;;;;;;;2.32;65.25;99290.72;5010237;28;40585;-83
2021/05/08 01:18:32;;;;;;;4.67;3.87;;;;;;;2.33;65.22;99295.06;5010145;28;41590;-83
2021/05/08 01:21:01;;;;;;;5.50;4.17;;;;;;;2.33;65.40;99293.31;4994792;28;41982;-82
2021/05/08 01:23:30;;;;;;;5.10;4.60;;;;;;;2.35;65.16;99296.72;5009941;28;41244;-82
2021/05/08 01:26:00;;;;;;;4.00;3.60;;;;;;;2.36;65.13;99298.44;4994498;28;39090;-81
2021/05/08 01:28:30;;;;;;;4.80;4.30;;;;;;;2.32;65.34;99288.97;4993092;28;40949;-84
2021/05/08 01:30:57;;;;;;;5.40;4.50;;;;;;;2.35;65.42;99295.91;5010667;28;42642;-76
2021/05/08 01:33:25;;;;;;;5.07;4.50;;;;;;;2.26;65.49;99281.25;4974382;28;41513;-80
2021/05/08 01:35:53;;;;;;;4.47;4.07;;;;;;;2.35;65.74;99288.06;4992371;28;39946;-84
2021/05/08 01:38:21;;;;;;;4.50;4.10;;;;;;;2.36;65.57;99301.06;4973783;28;41609;-82
2021/05/08 01:40:59;;;;;;;4.70;3.70;;;;;;;2.30;65.75;99292.50;4990784;28;42650;-78
2021/05/08 01:43:27;;;;;;;4.60;4.10;;;;;;;2.35;65.42;99301.13;4973593;28;41288;-78
2021/05/08 01:45:54;;;;;;;4.93;4.37;;;;;;;2.35;65.38;99312.41;4991862;28;40013;-83
2021/05/08 01:48:22;;;;;;;5.20;4.70;;;;;;;2.23;65.62;99291.75;4973550;28;41504;-79
2021/05/08 01:50:51;;;;;;;5.30;4.33;;;;;;;2.34;65.43;99300.25;4989387;28;43384;-75
2021/05/08 01:53:20;;;;;;;5.17;4.43;;;;;;;2.32;65.31;99295.94;4990111;28;42552;-80
2021/05/08 01:55:48;;;;;;;4.67;4.27;;;;;;;2.31;65.35;99295.09;4989569;28;39878;-77
2021/05/08 01:58:22;;;;;;;4.80;4.40;;;;;;;2.30;65.39;99293.38;4989500;28;41401;-78
2021/05/08 02:00:54;;;;;;;5.07;4.57;;;;;;;2.30;65.32;99290.75;4989928;28;42804;-82
2021/05/08 02:03:22;;;;;;;4.70;4.30;;;;;;;2.29;65.81;99286.41;4988990;28;42233;-81
2021/05/08 02:05:51;;;;;;;4.97;4.33;;;;;;;2.29;65.67;99296.88;4973867;28;39629;-81
2021/05/08 02:08:37;;;;;;;4.90;4.37;;;;;;;2.23;65.61;99281.31;4988642;28;40817;-78
2021/05/08 02:11:09;;;;;;;5.63;5.13;;;;;;;2.26;65.72;99281.25;4989169;28;42348;-82
2021/05/08 02:13:39;;;;;;;4.50;4.10;;;;;;;2.21;65.85;99271.81;4972954;28;41794;-81
2021/05/08 02:16:07;;;;;;;5.87;4.53;;;;;;;2.21;65.83;99275.28;4973654;28;39999;-78
2021/05/08 02:18:35;;;;;;;4.80;4.23;;;;;;;2.19;65.94;99273.59;4990729;28;41699;-80
2021/05/08 02:21:02;;;;;;;4.77;4.27;;;;;;;2.14;65.93;99273.69;4973672;28;42685;-78
2021/05/08 02:23:30;;;;;;;4.10;3.70;;;;;;;2.11;65.98;99265.91;4989459;28;42177;-81
2021/05/08 02:25:58;;;;;;;4.67;4.10;;;;;;;2.09;66.31;99267.72;4974077;28;38569;-77
2021/05/08 02:28:26;;;;;;;4.53;4.13;;;;;;;2.03;66.19;99262.63;4989927;28;41616;-80
2021/05/08 02:30:54;;;;;;;5.43;4.80;;;;;;;2.03;66.11;99268.69;4990204;28;43294;-81
2021/05/08 02:33:28;;;;;;;5.13;4.63;;;;;;;2.01;66.08;99275.69;4988662;28;41105;-81
2021/05/08 02:35:55;;;;;;;4.50;4.10;;;;;;;1.99;66.21;99274.00;4989588;28;39881;-78
2021/05/08 02:38:22;;;;;;;4.80;4.40;;;;;;;1.96;66.32;99264.50;4990740;28;42184;-80
2021/05/08 02:40:51;;;;;;;5.67;5.07;;;;;;;1.92;66.72;99264.59;4989881;28;43532;-80
2021/05/08 02:43:18;;;;;;;5.83;4.70;;;;;;;1.91;66.63;99260.28;4989307;28;42094;-77
2021/05/08 02:45:52;;;;;;;5.63;4.77;;;;;;;1.93;66.58;99264.56;4973754;28;40058;-78
2021/05/08 02:48:20;;;;;;;4.70;4.30;;;;;;;1.92;67.00;99259.38;4990995;28;41588;-77
2021/05/08 02:50:53;;;;;;;5.60;4.43;;;;;;;1.90;66.84;99263.75;4988649;28;42463;-78
2021/05/08 02:53:20;;;;;;;5.30;4.67;;;;;;;1.89;66.71;99259.44;4988727;28;42777;-78
2021/05/08 02:55:47;;;;;;;5.73;5.10;;;;;;;1.86;66.71;99262.09;5004707;28;39733;-84
2021/05/08 02:58:16;;;;;;;6.67;5.63;;;;;;;1.87;67.23;99266.44;4972835;28;40691;-81
2021/05/08 03:00:46;;;;;;;5.07;4.57;;;;;;;1.87;66.91;99269.03;4988679;28;43397;-81
2021/05/08 03:03:15;;;;;;;5.80;4.90;;;;;;;1.85;66.90;99263.03;4973173;28;41555;-81
2021/05/08 03:05:47;;;;;;;5.03;4.53;;;;;;;1.83;67.07;99264.81;4988791;28;39709;-82
2021/05/08 03:08:19;;;;;;;5.73;4.30;;;;;;;1.82;67.59;99268.31;4988949;28;42184;-78
2021/05/08 03:10:46;;;;;;;6.00;4.97;;;;;;;1.72;67.57;99247.63;4988567;28;42429;-83
2021/05/08 03:13:16;;;;;;;5.00;4.53;;;;;;;1.75;67.73;99251.88;4972225;28;43765;-80
2021/05/08 03:15:44;;;;;;;5.43;4.93;;;;;;;1.70;67.51;99249.38;4988677;28;38895;-77
2021/05/08 03:18:12;;;;;;;4.87;4.43;;;;;;;1.69;67.37;99255.50;4972153;28;40285;-82
2021/05/08 03:20:39;;;;;;;5.37;4.87;;;;;;;1.66;67.43;99252.09;4989633;28;42955;-81
2021/05/08 03:23:07;;;;;;;5.47;4.80;;;;;;;1.63;67.39;99257.34;4988654;28;42479;-81
2021/05/08 03:25:34;;;;;;;5.57;5.07;;;;;;;1.61;67.36;99259.13;4973573;28;39073;-80
2021/05/08 03:28:03;;;;;;;4.63;4.17;;;;;;;1.57;67.60;99255.75;4988434;28;42378;-78
2021/05/08 03:30:33;;;;;;;4.33;3.93;;;;;;;1.48;67.61;99248.09;4988825;28;42317;-77
2021/05/08 03:33:06;;;;;;;4.53;4.13;;;;;;;1.53;67.66;99258.44;5004966;28;42682;-82
2021/05/08 03:35:33;;;;;;;5.07;4.57;;;;;;;1.44;67.72;99252.53;5007675;28;40604;-78
2021/05/08 03:38:00;;;;;;;4.77;4.37;;;;;;;1.41;67.56;99246.50;4992344;28;40758;-80
2021/05/08 03:40:28;;;;;;;4.73;4.33;;;;;;;1.47;67.50;99256.81;5007384;28;42639;-81
2021/05/08 03:42:57;;;;;;;4.40;3.93;;;;;;;1.47;67.81;99255.97;5016803;28;42023;-78
2021/05/08 03:45:24;;;;;;;5.13;4.67;;;;;;;1.47;67.94;99255.97;4988624;28;40043;-78
2021/05/08 03:47:51;;;;;;;4.50;4.10;;;;;;;1.41;68.15;99247.34;4987821;28;41936;-77
2021/05/08 03:50:18;;;;;;;5.40;4.90;;;;;;;1.50;69.01;99256.75;4990630;28;42821;-78
2021/05/08 03:52:45;;;;;;;4.80;4.40;;;;;;;1.48;69.11;99248.09;5003760;28;42527;-78
2021/05/08 03:55:12;;;;;;;4.80;4.40;;;;;;;1.51;69.14;99248.03;4989634;28;40410;-86
2021/05/08 03:57:40;;;;;;;5.53;5.03;;;;;;;1.54;68.96;99253.19;4988192;28;40779;-84
2021/05/08 04:00:08;;;;;;;5.83;4.87;;;;;;;1.50;68.75;99245.44;4989358;28;43417;-83
2021/05/08 04:02:43;;;;;;;5.30;4.80;;;;;;;1.55;68.71;99254.91;4988831;28;41671;-80
2021/05/08 04:05:11;;;;;;;5.30;4.60;;;;;;;1.56;68.77;99246.19;4972325;28;39484;-82
2021/05/08 04:07:38;;;;;;;6.37;5.77;;;;;;;1.57;69.31;99250.53;4988393;28;41813;-81
2021/05/08 04:10:06;;;;;;;5.73;5.13;;;;;;;1.59;69.46;99248.75;4971637;28;41889;-78
2021/05/08 04:12:33;;;;;;;5.63;5.13;;;;;;;1.61;69.48;99249.56;4988453;28;41393;-78
2021/05/08 04:15:01;;;;;;;5.07;4.57;;;;;;;1.39;69.28;99210.00;4988851;28;39907;-80
2021/05/08 04:17:28;;;;;;;6.83;5.63;;;;;;;1.59;69.04;99237.44;4989823;28;41508;-79
2021/05/08 04:19:56;;;;;;;5.03;4.63;;;;;;;1.74;68.85;99256.25;4988063;28;41792;-82
2021/05/08 04:22:23;;;;;;;5.50;5.00;;;;;;;1.78;68.67;99263.13;4970790;28;42202;-81
2021/05/08 04:24:50;;;;;;;5.43;4.93;;;;;;;1.75;68.59;99251.88;4988870;28;41053;-81
2021/05/08 04:27:17;;;;;;;5.07;4.57;;;;;;;1.87;68.67;99271.66;4989042;28;42007;-75
2021/05/08 04:29:44;;;;;;;4.37;3.97;;;;;;;1.90;68.57;99271.59;4993166;28;43496;-81
2021/05/08 04:32:12;;;;;;;5.67;4.93;;;;;;;1.98;68.52;99275.75;4975109;28;42161;-81
2021/05/08 04:34:39;;;;;;;6.13;5.53;;;;;;;2.06;68.67;99278.22;4991529;28;40014;-79
2021/05/08 04:37:06;;;;;;;5.50;4.97;;;;;;;2.13;68.54;99277.19;4990913;28;42206;-77
2021/05/08 04:39:33;;;;;;;5.43;4.90;;;;;;;2.23;68.46;99286.53;4992962;28;42473;-78
2021/05/08 04:42:00;;;;;;;5.80;5.30;;;;;;;2.34;68.36;99288.94;4992719;28;42303;-78
2021/05/08 04:44:27;;;;;;;5.97;5.37;;;;;;;2.46;67.98;99291.28;4990770;28;39839;-82
2021/05/08 04:46:54;;;;;;;5.00;4.60;;;;;;;2.55;67.74;99288.44;4991150;28;40580;-83
2021/05/08 04:49:22;;;;;;;4.70;4.30;;;;;;;2.62;67.59;99282.16;4992254;28;42746;-80
2021/05/08 04:51:53;;;;;;;5.63;4.97;;;;;;;2.69;67.60;99286.38;4990868;28;42291;-81
2021/05/08 04:54:20;;;;;;;4.70;4.27;;;;;;;2.81;67.53;99279.97;4975104;28;39049;-76
2021/05/08 04:56:47;;;;;;;4.83;4.43;;;;;;;2.79;67.46;99263.47;4974322;28;40762;-79
2021/05/08 04:59:14;;;;;;;5.80;5.13;;;;;;;3.00;67.14;99285.59;4991025;28;43432;-81
2021/05/08 05:01:41;;;;;;;5.73;5.13;;;;;;;2.99;67.31;99258.56;4974041;28;42302;-84
2021/05/08 05:04:09;;;;;;;4.63;4.23;;;;;;;3.18;67.16;99293.84;4991192;28;40693;-78
2021/05/08 05:06:37;;;;;;;5.17;4.67;;;;;;;3.31;67.02;99283.06;4974912;28;40848;-77
2021/05/08 05:09:04;;;;;;;5.30;4.80;;;;;;;3.39;67.15;99279.34;4990498;28;43369;-81
2021/05/08 05:11:32;;;;;;;5.17;4.67;;;;;;;3.50;67.04;99284.28;4990365;28;42091;-81
2021/05/08 05:13:59;;;;;;;5.40;4.87;;;;;;;3.60;66.83;99288.34;4992409;28;40948;-78
2021/05/08 05:16:26;;;;;;;7.07;6.37;;;;;;;3.71;66.87;99288.91;4990132;28;42372;-79
2021/05/08 05:18:53;;;;;;;6.37;5.80;;;;;;;3.78;67.50;99282.63;4991377;28;41949;-76
2021/05/08 05:21:20;;;;;;;7.23;6.63;;;;;;;3.87;67.27;99284.97;4990387;28;41849;-81
2021/05/08 05:23:48;;;;;;;6.53;5.93;;;;;;;3.97;67.14;99288.19;4991882;28;40266;-80
2021/05/08 05:26:15;;;;;;;6.37;5.67;;;;;;;4.07;66.86;99278.31;4990493;28;42507;-82
2021/05/08 05:28:43;;;;;;;6.37;5.80;;;;;;;4.18;66.80;99281.47;4990421;28;42784;-78
2021/05/08 05:31:10;;;;;;;6.30;5.67;;;;;;;4.30;67.04;99286.34;4991862;28;42197;-80
2021/05/08 05:33:37;;;;;;;6.87;6.23;;;;;;;4.40;67.00;99282.53;4993320;28;39952;-77
2021/05/08 05:36:05;;;;;;;6.80;6.20;;;;;;;4.52;66.92;99281.28;4994500;28;40905;-78
2021/05/08 05:38:33;;;;;;;6.73;6.03;;;;;;;4.64;66.74;99281.75;4992162;28;41664;-85
2021/05/08 05:41:01;;;;;;;7.03;6.33;;;;;;;4.77;66.63;99282.22;4980712;28;41363;-79
2021/05/08 05:43:28;;;;;;;6.97;6.27;;;;;;;4.95;66.49;99283.38;5001798;28;39704;-80
2021/05/08 05:45:55;;;;;;;7.40;6.73;;;;;;;5.17;66.05;99276.53;4984415;28;40464;-79
2021/05/08 05:48:22;;;;;;;7.17;6.57;;;;;;;5.34;66.23;99279.41;4979412;28;42636;-79
2021/05/08 05:50:49;;;;;;;7.37;6.77;;;;;;;5.41;66.07;99274.81;4998942;28;42997;-78
2021/05/08 05:53:17;;;;;;;7.57;6.97;;;;;;;5.59;65.81;99281.19;4981813;28;38992;-80
2021/05/08 05:55:44;;;;;;;7.33;6.63;;;;;;;5.75;65.82;99284.97;5000110;28;40944;-83
2021/05/08 05:58:12;;;;;;;7.47;5.63;;;;;;;5.86;65.61;99276.72;4983671;28;41907;-83
2021/05/08 06:00:39;;;;;;;6.00;5.40;;;;;;;6.04;65.35;99282.19;4999604;28;42764;-81
2021/05/08 06:03:06;;;;;;;7.80;7.10;;;;;;;6.19;65.13;99279.88;4982541;28;40895;-78
2021/05/08 06:05:33;;;;;;;6.93;6.30;;;;;;;6.16;64.69;99249.31;4998792;28;41710;-78
2021/05/08 06:08:00;;;;;;;5.97;5.47;;;;;;;6.49;64.50;99289.22;4983814;28;42007;-81
2021/05/08 06:10:27;;;;;;;7.37;6.37;;;;;;;6.61;64.22;99272.09;4993015;28;42109;-82
2021/05/08 06:12:55;;;;;;;6.67;6.10;;;;;;;7.02;62.64;99294.13;5009693;28;39938;-82
2021/05/08 06:15:23;;;;;;;6.50;5.93;;;;;;;7.48;61.73;99293.03;4992968;28;40611;-79
2021/05/08 06:17:50;;;;;;;6.27;5.67;;;;;;;7.94;60.68;99298.00;5009723;28;41781;-78
2021/05/08 06:20:18;;;;;;;6.40;5.60;;;;;;;8.26;59.09;99315.03;5009391;28;42697;-79
2021/05/08 06:22:45;;;;;;;5.97;5.47;;;;;;;8.42;59.04;99303.78;5009629;28;40397;-82
2021/05/08 06:25:12;;;;;;;6.13;5.63;;;;;;;8.53;58.70;99318.19;5009470;28;40540;-80
2021/05/08 06:27:40;;;;;;;6.47;5.90;;;;;;;8.60;59.18;99311.72;5003657;28;42751;-82
2021/05/08 06:30:09;;;;;;;7.87;6.20;;;;;;;8.80;57.91;99288.75;4988057;28;42219;-80
2021/05/08 06:32:37;;;;;;;6.77;6.17;;;;;;;9.32;56.03;99316.13;5000576;28;38416;-82
2021/05/08 06:35:05;;;;;;;6.80;6.07;;;;;;;9.66;55.20;99315.25;5009726;28;41626;-75
2021/05/08 06:37:33;;;;;;;6.53;5.93;;;;;;;9.95;54.62;99313.75;5015435;28;42597;-74
2021/05/08 06:40:00;;;;;;;5.23;4.73;;;;;;;10.34;54.28;99310.81;5022456;28;42445;-74
2021/05/08 06:42:27;;;;;;;5.40;4.90;;;;;;;10.54;54.17;99301.75;5006115;28;39148;-74
2021/05/08 06:44:54;;;;;;;5.77;5.27;;;;;;;10.89;51.53;99319.19;5029340;28;44417;-73
2021/05/08 06:47:21;;;;;;;5.23;4.83;;;;;;;11.35;51.88;99308.63;5019108;28;41557;-74
2021/05/08 06:49:49;;;;;;;5.13;4.63;;;;;;;11.81;49.26;99318.25;5003870;28;42065;-76
2021/05/08 06:52:16;;;;;;;5.10;4.70;;;;;;;12.33;48.69;99320.38;4997368;28;41350;-80
2021/05/08 06:54:44;;;;;;;4.40;4.10;;;;;;;12.33;47.34;99306.22;5000064;28;42933;-77
2021/05/08 06:57:11;;;;;;;4.90;4.50;;;;;;;12.43;47.97;99324.16;4982317;28;41258;-81
2021/05/08 06:59:38;;;;;;;4.73;4.33;;;;;;;12.32;46.33;99331.09;4988182;28;41291;-78
2021/05/08 07:02:05;;;;;;;4.90;4.40;;;;;;;12.33;45.77;99333.66;4992152;28;38951;-82
2021/05/08 07:04:32;;;;;;;5.30;4.90;;;;;;;12.49;46.14;99329.06;4988440;28;41461;-80
2021/05/08 07:07:00;;;;;;;5.20;4.80;;;;;;;12.71;46.77;99327.72;4990433;28;42406;-81
2021/05/08 07:09:27;;;;;;;4.27;3.97;;;;;;;12.68;46.97;99310.16;4972625;28;41575;-80
2021/05/08 07:11:54;;;;;;;4.77;4.43;;;;;;;12.75;46.24;99323.91;4988732;28;40431;-81
2021/05/08 07:14:21;;;;;;;5.77;5.10;;;;;;;12.76;45.39;99322.94;4988324;28;40799;-75
2021/05/08 07:16:48;;;;;;;5.60;5.10;;;;;;;12.89;45.06;99334.50;4990575;28;42769;-79
2021/05/08 07:19:16;;;;;;;5.77;5.37;;;;;;;13.33;46.32;99325.47;4968660;28;42305;-83
2021/05/08 07:21:43;;;;;;;6.10;5.43;;;;;;;14.00;43.37;99338.59;4989202;28;40641;-83
2021/05/08 07:24:12;;;;;;;5.43;4.83;;;;;;;14.96;41.66;99361.13;5006195;28;42066;-82
2021/05/08 07:26:39;;;;;;;5.23;4.83;;;;;;;16.37;39.79;99362.06;4995076;28;42054;-76
2021/05/08 07:29:06;;;;;;;5.63;4.50;;;;;;;18.16;35.76;99390.19;4989965;28;42006;-85
2021/05/08 07:31:34;;;;;;;4.20;3.90;;;;;;;19.95;33.21;99399.31;4996174;28;39068;-83
2021/05/08 07:34:01;;;;;;;4.87;4.37;;;;;;;21.50;31.88;99398.72;4989839;28;41334;-85
2021/05/08 07:36:28;;;;;;;4.67;4.17;;;;;;;22.58;29.32;99401.19;5002966;28;42434;-78
2021/05/08 07:38:56;;;;;;;4.20;3.90;;;;;;;23.26;28.70;99403.94;4985236;28;42555;-78
2021/05/08 07:41:24;;;;;;;4.60;4.30;;;;;;;23.66;27.58;99406.94;4987498;28;41576;-79
2021/05/08 07:43:52;;;;;;;4.87;4.47;;;;;;;23.47;27.19;99410.78;4976178;28;42127;-85
2021/05/08 07:46:18;;;;;;;7.57;6.97;;;;;;;22.62;27.92;99400.88;5003704;28;42510;-81
2021/05/08 07:48:46;;;;;;;6.47;5.90;;;;;;;21.58;29.36;99381.78;4986163;28;41337;-85
2021/05/08 07:51:13;;;;;;;4.43;4.13;;;;;;;20.91;30.92;99366.81;5000796;28;39655;-80
2021/05/08 07:53:40;;;;;;;4.77;4.40;;;;;;;20.42;32.20;99349.16;4991823;28;41565;-84
2021/05/08 07:56:07;;;;;;;4.57;4.17;;;;;;;20.19;33.24;99342.38;4989257;28;42612;-83
2021/05/08 07:58:35;;;;;;;5.57;5.07;;;;;;;19.71;32.45;99360.28;4973719;28;41502;-81
2021/05/08 08:01:03;;;;;;;4.80;4.40;;;;;;;19.48;32.90;99347.22;4995809;28;39489;-80
2021/05/08 08:03:30;;;;;;;5.40;4.90;;;;;;;19.27;32.97;99350.88;4996977;28;42804;-78
2021/05/08 08:05:58;;;;;;;5.50;5.00;;;;;;;19.23;33.11;99348.59;5007801;28;43359;-80
2021/05/08 08:08:25;;;;;;;5.47;4.80;;;;;;;18.88;33.51;99290.88;5002832;28;42258;-78
2021/05/08 08:10:52;;;;;;;5.30;4.90;;;;;;;19.37;34.81;99324.03;4989932;28;38782;-75
2021/05/08 08:13:19;;;;;;;5.30;4.90;;;;;;;19.94;31.64;99344.69;4990097;28;41361;-79
2021/05/08 08:15:47;;;;;;;6.27;5.63;;;;;;;20.43;31.07;99351.69;4995492;28;43628;-80
2021/05/08 08:18:14;;;;;;;4.50;4.17;;;;;;;21.01;31.36;99348.78;4996328;28;41512;-78
2021/05/08 08:20:42;;;;;;;5.00;4.50;;;;;;;21.79;30.20;99339.16;5000047;28;40073;-77
2021/05/08 08:23:09;;;;;;;5.40;5.00;;;;;;;22.21;29.07;99349.31;4999368;28;42216;-78
2021/05/08 08:25:36;;;;;;;4.70;4.30;;;;;;;22.23;30.72;99328.44;4992747;28;41675;-75
2021/05/08 08:28:04;;;;;;;5.10;4.70;;;;;;;22.37;29.60;99335.94;4971690;28;41287;-81
2021/05/08 08:30:31;;;;;;;5.10;4.60;;;;;;;23.09;29.45;99347.31;4996686;28;40867;-78
2021/05/08 08:32:59;;;;;;;5.63;4.20;;;;;;;24.32;28.10;99353.59;4999706;28;40119;-79
2021/05/08 08:35:26;;;;;;;4.80;4.40;;;;;;;25.29;26.36;99362.44;5007916;28;41605;-78
2021/05/08 08:37:53;;;;;;;5.83;4.70;;;;;;;25.94;24.70;99378.31;5005628;28;42538;-79
2021/05/08 08:40:21;;;;;;;5.13;4.43;;;;;;;26.88;24.89;99376.94;4997100;28;40320;-77
2021/05/08 08:42:48;;;;;;;4.87;4.47;;;;;;;28.15;23.44;99374.50;4980188;28;41066;-81
2021/05/08 08:45:15;;;;;;;5.27;4.30;;;;;;;29.31;22.59;99376.56;5017066;28;42645;-77
2021/05/08 08:47:43;;;;;;;6.70;5.17;;;;;;;29.45;21.12;99382.97;4997405;28;41858;-77
2021/05/08 08:50:12;;;;;;;4.60;4.20;;;;;;;29.67;21.92;99361.00;4972776;28;39036;-77
2021/05/08 08:52:40;;;;;;;5.07;4.67;;;;;;;30.47;19.70;99390.94;4986719;28;41910;-79
2021/05/08 08:55:10;;;;;;;5.70;4.37;;;;;;;30.81;19.28;99381.69;4972587;28;41985;-75
2021/05/08 08:57:40;;;;;;;4.20;3.90;;;;;;;30.70;18.25;99388.63;4991089;28;42124;-79
2021/05/08 09:00:10;;;;;;;3.70;3.30;;;;;;;30.50;19.28;99371.41;5008453;28;39787;-77
2021/05/08 09:02:37;;;;;;;4.73;3.93;;;;;;;29.92;20.79;99321.13;5009117;28;42200;-79
2021/05/08 09:05:10;;;;;;;3.63;3.33;;;;;;;29.67;20.59;99359.13;4993621;28;43227;-79
2021/05/08 09:07:42;;;;;;;4.33;4.03;;;;;;;29.13;19.32;99335.38;4989255;28;41657;-78
2021/05/08 09:10:20;;;;;;;4.77;4.37;;;;;;;28.88;19.45;99345.97;5009366;28;39863;-77
2021/05/08 09:12:49;;;;;;;4.47;4.07;;;;;;;28.29;20.25;99326.47;5009909;28;41643;-77
2021/05/08 09:15:32;;;;;;;4.27;3.87;;;;;;;27.61;21.00;99329.78;4993440;28;43549;-77
2021/05/08 09:18:00;;;;;;;4.67;3.83;;;;;;;27.54;21.35;99306.06;4993720;28;42195;-76
2021/05/08 09:20:43;;;;;;;2.83;2.63;;;;;;;27.49;20.34;99335.69;4992869;28;39732;-78
2021/05/08 09:23:22;;;;;;;3.30;2.80;;;;;;;27.38;20.91;99336.22;4997927;28;42188;-76
2021/05/08 09:26:06;;;;;;;4.00;2.47;;;;;;;27.08;19.88;99337.28;4990116;28;42412;-76
2021/05/08 09:28:38;;;;;;;4.27;3.30;;;;;;;26.84;20.13;99338.41;4992175;28;43203;-78
2021/05/08 09:31:06;;;;;;;3.33;3.00;;;;;;;26.61;20.69;99330.34;4990453;28;39902;-81
2021/05/08 09:33:34;;;;;;;3.00;2.70;;;;;;;26.56;20.30;99321.94;4995949;28;41200;-80
2021/05/08 09:36:08;;;;;;;3.83;2.73;;;;;;;26.84;20.48;99320.22;5008187;28;43167;-77
2021/05/08 09:38:38;;;;;;;4.30;2.93;;;;;;;27.04;19.94;99323.25;5009308;28;41527;-79
2021/05/08 09:41:07;;;;;;;3.33;2.47;;;;;;;27.36;20.27;99308.34;5002110;28;39798;-82
2021/05/08 09:43:36;;;;;;;3.00;2.70;;;;;;;27.67;19.50;99326.31;5006992;28;42438;-77
2021/05/08 09:46:04;;;;;;;4.33;3.10;;;;;;;27.40;19.60;99317.81;5010133;28;42747;-77
2021/05/08 09:48:33;;;;;;;2.47;2.20;;;;;;;27.33;20.11;99316.88;4988379;28;42178;-80
2021/05/08 09:51:20;;;;;;;2.77;2.57;;;;;;;27.37;19.14;99312.75;4973690;28;39344;-81
2021/05/08 09:53:53;;;;;;;2.20;1.90;;;;;;;28.17;19.59;99296.19;5010734;28;41751;-80
2021/05/08 09:56:39;;;;;;;3.57;2.03;;;;;;;28.63;18.27;99312.03;5010164;28;43094;-78
2021/05/08 09:59:26;;;;;;;2.80;2.47;;;;;;;28.59;17.93;99308.00;4992444;28;41203;-78
2021/05/08 10:02:13;;;;;;;2.40;2.20;;;;;;;28.61;18.21;99300.47;5009755;28;40042;-78
2021/05/08 10:04:43;;;;;;;3.20;2.60;;;;;;;28.86;18.16;99304.41;5005364;28;41363;-77
2021/05/08 10:07:12;;;;;;;2.73;2.17;;;;;;;28.56;18.54;99292.88;4988608;28;43053;-78
2021/05/08 10:09:41;;;;;;;4.03;2.63;;;;;;;28.23;18.12;99289.97;4989279;28;43951;-78
2021/05/08 10:12:10;;;;;;;2.13;1.83;;;;;;;28.30;18.40;99302.78;5008555;28;41670;-81
2021/05/08 10:14:47;;;;;;;1.90;1.80;;;;;;;28.61;18.40;99300.47;5008107;28;40646;-77
2021/05/08 10:17:19;;;;;;;2.43;2.20;;;;;;;29.05;17.06;99293.81;5008663;28;42521;-80
2021/05/08 10:19:48;;;;;;;2.40;1.90;;;;;;;29.51;16.70;99275.72;5008450;28;45343;-77
2021/05/08 10:22:16;;;;;;;2.10;1.90;;;;;;;29.77;16.33;99299.47;4988153;28;40614;-81
2021/05/08 10:24:48;;;;;;;2.27;1.77;;;;;;;29.48;16.74;99276.13;4973132;28;40745;-78
2021/05/08 10:27:16;;;;;;;2.67;1.93;;;;;;;29.93;17.35;99262.69;4971993;28;44287;-79
2021/05/08 10:29:47;;;;;;;3.50;2.23;;;;;;;30.26;16.42;99279.13;4973241;28;20238;-77
2021/05/08 10:32:15;;;;;;;4.00;2.00;;;;;;;30.39;17.21;99278.25;4990663;28;39934;-79
2021/05/08 10:34:51;;;;;;;2.20;2.00;;;;;;;30.91;15.85;99282.78;4989196;28;41754;-80
2021/05/08 10:37:18;;;;;;;2.43;2.17;;;;;;;30.72;16.04;99284.50;5002960;28;42644;-78
2021/05/08 10:39:55;;;;;;;2.37;1.80;;;;;;;30.72;16.86;99262.63;5008210;28;41805;-75
2021/05/08 10:42:40;;;;;;;3.07;2.03;;;;;;;30.98;15.70;99262.53;5007895;28;40165;-75
2021/05/08 10:45:32;;;;;;;3.10;2.20;;;;;;;30.97;15.88;99260.84;5006985;28;42166;-77
2021/05/08 10:48:15;;;;;;;2.73;2.20;;;;;;;31.09;16.15;99247.34;5008984;28;43368;-79
2021/05/08 10:50:54;;;;;;;2.00;1.70;;;;;;;31.27;16.84;99233.78;5007537;28;42975;-77
2021/05/08 10:53:36;;;;;;;1.47;1.37;;;;;;;31.42;16.06;99234.31;4991192;28;38501;-76
2021/05/08 10:56:04;;;;;;;2.30;1.83;;;;;;;30.82;15.50;99251.22;4997020;28;41854;-79
2021/05/08 10:58:37;;;;;;;2.30;1.60;;;;;;;30.14;17.48;99221.56;4970980;28;42939;-80
2021/05/08 11:01:12;;;;;;;2.20;1.80;;;;;;;29.60;17.61;99214.41;4986552;28;41249;-78
2021/05/08 11:04:02;;;;;;;2.27;1.80;;;;;;;28.84;17.13;99221.97;4991666;28;42201;-79
2021/05/08 11:06:29;;;;;;;2.27;1.77;;;;;;;28.07;17.80;99215.84;5008855;28;41680;-79
2021/05/08 11:08:57;;;;;;;1.90;1.60;;;;;;;27.65;18.31;99201.31;4992560;28;43229;-80
2021/05/08 11:11:41;;;;;;;1.80;1.60;;;;;;;27.66;19.09;99207.59;5008825;28;42234;-75
2021/05/08 11:14:08;;;;;;;2.30;1.73;;;;;;;27.47;18.50;99204.47;5007897;28;40596;-78
2021/05/08 11:16:35;;;;;;;2.73;1.80;;;;;;;27.03;19.62;99190.22;5009120;28;41663;-78
2021/05/08 11:19:22;;;;;;;2.93;2.07;;;;;;;26.96;20.18;99178.41;5003283;28;42119;-80
2021/05/08 11:21:52;;;;;;;2.27;1.60;;;;;;;27.11;19.72;99176.50;4972358;28;41066;-83
2021/05/08 11:24:36;;;;;;;1.87;1.63;;;;;;;27.23;18.90;99188.53;4988780;28;39823;-79
2021/05/08 11:27:31;;;;;;;1.77;1.67;;;;;;;27.49;19.79;99179.78;4989898;28;42068;-81
2021/05/08 11:30:07;;;;;;;2.57;1.57;;;;;;;27.92;18.69;99191.47;4988611;28;43789;-79
2021/05/08 11:32:45;;;;;;;1.50;1.30;;;;;;;28.39;17.32;99193.44;5004706;28;42612;-78
2021/05/08 11:35:25;;;;;;;2.70;1.73;;;;;;;28.65;17.05;99181.00;5007824;28;39843;-79
2021/05/08 11:37:52;;;;;;;2.93;2.00;;;;;;;29.36;17.58;99187.69;5007492;28;41666;-82
2021/05/08 11:40:31;;;;;;;1.93;1.50;;;;;;;30.12;17.76;99174.47;5009033;28;43767;-77
2021/05/08 11:42:59;;;;;;;2.50;1.53;;;;;;;30.38;18.10;99167.25;5009334;28;42158;-79
2021/05/08 11:45:26;;;;;;;2.47;1.80;;;;;;;30.99;18.53;99160.25;5008488;28;39993;-78
2021/05/08 11:47:53;;;;;;;2.17;1.40;;;;;;;31.63;16.26;99166.56;5007924;28;41448;-76
2021/05/08 11:50:20;;;;;;;2.93;2.00;;;;;;;32.53;15.08;99186.09;4991229;28;41654;-78